createdAt,value
2023-03-06T00:00:21.840Z,21.27
2023-03-06T00:02:49.548Z,21.28
2023-03-06T00:05:17.533Z,21.29
2023-03-06T00:07:45.862Z,21.29
2023-03-06T00:10:13.863Z,21.30
2023-03-06T00:12:41.537Z,21.30
2023-03-06T00:15:11.103Z,21.30
2023-03-06T00:17:38.810Z,21.30
2023-03-06T00:20:06.923Z,21.30
2023-03-06T00:22:34.558Z,21.28
2023-03-06T00:25:02.275Z,21.27
2023-03-06T00:27:30.699Z,21.27
2023-03-06T00:29:58.583Z,21.26
2023-03-06T00:32:28.321Z,21.26
2023-03-06T00:34:56.219Z,21.24
2023-03-06T00:37:24.183Z,21.25
2023-03-06T00:39:51.838Z,21.25
2023-03-06T00:42:19.599Z,21.24
2023-03-06T00:44:47.297Z,21.24
2023-03-06T00:47:33.534Z,21.23
2023-03-06T00:50:02.512Z,21.23
2023-03-06T00:52:30.181Z,21.23
2023-03-06T00:54:57.948Z,21.22
2023-03-06T00:57:25.696Z,21.22
2023-03-06T00:59:53.326Z,21.21
2023-03-06T01:02:21.050Z,21.21
2023-03-06T01:04:48.822Z,21.20
2023-03-06T01:07:18.305Z,21.21
2023-03-06T01:09:45.979Z,21.20
2023-03-06T01:12:13.614Z,21.20
2023-03-06T01:14:41.298Z,21.20
2023-03-06T01:17:08.975Z,21.21
2023-03-06T01:19:36.573Z,21.22
2023-03-06T01:22:04.318Z,21.23
2023-03-06T01:24:33.333Z,21.24
2023-03-06T01:27:01.013Z,21.24
2023-03-06T01:29:28.716Z,21.25
2023-03-06T01:31:56.354Z,21.23
2023-03-06T01:34:24.047Z,21.22
2023-03-06T01:36:51.688Z,21.21
2023-03-06T01:39:19.301Z,21.21
2023-03-06T01:41:48.325Z,21.19
2023-03-06T01:44:16.062Z,21.20
2023-03-06T01:46:43.875Z,21.19
2023-03-06T01:49:16.270Z,21.19
2023-03-06T01:51:45.376Z,21.19
2023-03-06T01:54:13.595Z,21.18
2023-03-06T01:56:41.274Z,21.17
2023-03-06T01:59:10.257Z,21.18
2023-03-06T02:01:37.901Z,21.18
2023-03-06T02:04:05.680Z,21.17
2023-03-06T02:06:33.553Z,21.17
2023-03-06T02:09:01.205Z,21.17
2023-03-06T02:11:29.026Z,21.17
2023-03-06T02:13:56.745Z,21.17
2023-03-06T02:16:26.887Z,21.15
2023-03-06T02:18:54.560Z,21.17
2023-03-06T02:21:23.007Z,21.17
2023-03-06T02:23:57.522Z,21.16
2023-03-06T02:26:26.490Z,21.16
2023-03-06T02:28:54.086Z,21.18
2023-03-06T02:31:22.888Z,21.18
2023-03-06T02:34:01.738Z,21.19
2023-03-06T02:36:29.420Z,21.18
2023-03-06T02:38:57.126Z,21.18
2023-03-06T02:41:26.237Z,21.17
2023-03-06T02:43:53.917Z,21.16
2023-03-06T02:46:21.526Z,21.16
2023-03-06T02:48:49.225Z,21.15
2023-03-06T02:51:16.956Z,21.15
2023-03-06T02:53:44.639Z,21.14
2023-03-06T02:56:12.312Z,21.15
2023-03-06T02:58:41.340Z,21.15
2023-03-06T03:01:09.088Z,21.14
2023-03-06T03:03:48.826Z,21.13
2023-03-06T03:06:16.848Z,21.14
2023-03-06T03:08:44.544Z,21.13
2023-03-06T03:11:12.279Z,21.13
2023-03-06T03:13:41.412Z,21.12
2023-03-06T03:16:09.660Z,21.12
2023-03-06T03:18:37.464Z,21.12
2023-03-06T03:21:08.004Z,21.12
2023-03-06T03:23:35.715Z,21.12
2023-03-06T03:26:09.302Z,21.11
2023-03-06T03:28:37.031Z,21.11
2023-03-06T03:31:06.530Z,21.12
2023-03-06T03:33:34.282Z,21.13
2023-03-06T03:36:02.045Z,21.13
2023-03-06T03:38:29.782Z,21.14
2023-03-06T03:40:57.374Z,21.15
2023-03-06T03:43:25.086Z,21.15
2023-03-06T03:45:53.793Z,21.14
2023-03-06T03:48:49.519Z,21.13
2023-03-06T03:51:18.588Z,21.12
2023-03-06T03:53:46.320Z,21.11
2023-03-06T03:56:14.306Z,21.10
2023-03-06T03:58:41.960Z,21.08
2023-03-06T04:01:09.650Z,21.10
2023-03-06T04:03:37.252Z,21.08
2023-03-06T04:06:04.970Z,21.07
2023-03-06T04:08:33.990Z,21.07
2023-03-06T04:11:01.702Z,21.06
2023-03-06T04:13:29.314Z,21.06
2023-03-06T04:15:57.049Z,21.05
2023-03-06T04:18:49.401Z,21.06
2023-03-06T04:21:17.137Z,21.06
2023-03-06T04:23:46.138Z,21.06
2023-03-06T04:26:13.883Z,21.05
2023-03-06T04:28:41.524Z,21.04
2023-03-06T04:31:09.298Z,21.05
2023-03-06T04:33:36.953Z,21.03
2023-03-06T04:36:04.768Z,21.04
2023-03-06T04:38:32.472Z,21.02
2023-03-06T04:41:01.577Z,21.03
2023-03-06T04:43:29.254Z,21.05
2023-03-06T04:45:56.949Z,21.06
2023-03-06T04:48:24.708Z,21.06
2023-03-06T04:50:52.349Z,21.06
2023-03-06T04:53:21.429Z,21.06
2023-03-06T04:55:49.032Z,21.05
2023-03-06T04:58:17.996Z,21.04
2023-03-06T05:00:45.688Z,21.04
2023-03-06T05:03:14.272Z,21.03
2023-03-06T05:05:41.899Z,21.02
2023-03-06T05:08:11.016Z,21.02
2023-03-06T05:10:38.611Z,21.00
2023-03-06T05:13:06.490Z,21.01
2023-03-06T05:15:35.529Z,21.00
2023-03-06T05:18:03.171Z,21.00
2023-03-06T05:20:30.892Z,21.00
2023-03-06T05:22:58.576Z,21.00
2023-03-06T05:25:26.199Z,21.00
2023-03-06T05:27:53.811Z,21.00
2023-03-06T05:30:23.193Z,21.00
2023-03-06T05:32:52.313Z,20.99
2023-03-06T05:35:20.486Z,21.00
2023-03-06T05:37:48.268Z,21.00
2023-03-06T05:40:16.252Z,21.00
2023-03-06T05:42:43.997Z,21.00
2023-03-06T05:45:12.230Z,21.00
2023-03-06T05:47:39.942Z,21.00
2023-03-06T05:50:10.591Z,21.01
2023-03-06T05:52:38.256Z,21.02
2023-03-06T05:55:06.306Z,21.04
2023-03-06T05:57:33.948Z,21.04
2023-03-06T06:00:01.553Z,21.07
2023-03-06T06:02:29.329Z,21.08
2023-03-06T06:04:57.049Z,21.09
2023-03-06T06:07:26.082Z,21.10
2023-03-06T06:09:54.031Z,21.11
2023-03-06T06:12:21.718Z,21.13
2023-03-06T06:14:49.594Z,21.15
2023-03-06T06:17:17.774Z,21.15
2023-03-06T06:19:45.455Z,21.16
2023-03-06T06:22:13.069Z,21.17
2023-03-06T06:24:42.032Z,21.18
2023-03-06T06:27:09.677Z,21.20
2023-03-06T06:29:37.382Z,21.20
2023-03-06T06:32:05.137Z,21.22
2023-03-06T06:34:32.953Z,21.23
2023-03-06T06:37:00.756Z,21.24
2023-03-06T06:39:29.045Z,21.24
2023-03-06T06:42:15.450Z,21.26
2023-03-06T06:44:45.693Z,21.27
2023-03-06T06:47:28.625Z,21.27
2023-03-06T06:49:56.506Z,21.28
2023-03-06T06:52:24.388Z,21.32
2023-03-06T06:54:52.112Z,21.35
2023-03-06T06:57:21.738Z,21.36
2023-03-06T06:59:51.257Z,21.38
2023-03-06T07:02:20.173Z,21.38
2023-03-06T07:05:02.573Z,21.39
2023-03-06T07:07:32.121Z,21.41
2023-03-06T07:10:00.351Z,21.43
2023-03-06T07:12:32.425Z,21.44
2023-03-06T07:15:00.684Z,21.46
2023-03-06T07:17:28.372Z,21.47
2023-03-06T07:19:56.083Z,21.48
2023-03-06T07:22:23.776Z,21.49
2023-03-06T07:24:51.399Z,21.51
2023-03-06T07:27:19.072Z,21.51
2023-03-06T07:29:48.582Z,21.51
2023-03-06T07:32:16.248Z,21.52
2023-03-06T07:34:44.732Z,21.54
2023-03-06T07:37:12.508Z,21.55
2023-03-06T07:39:40.268Z,21.58
2023-03-06T07:42:07.974Z,21.59
2023-03-06T07:44:37.099Z,21.60
2023-03-06T07:47:06.257Z,21.62
2023-03-06T07:49:34.000Z,21.62
2023-03-06T07:52:02.185Z,21.62
2023-03-06T07:54:30.741Z,21.64
2023-03-06T07:56:58.368Z,21.65
2023-03-06T07:59:25.984Z,21.66
2023-03-06T08:01:54.999Z,21.68
2023-03-06T08:04:24.123Z,21.68
2023-03-06T08:06:53.505Z,21.71
2023-03-06T08:09:21.175Z,21.72
2023-03-06T08:11:48.914Z,21.72
2023-03-06T08:14:17.006Z,21.75
2023-03-06T08:16:44.726Z,21.77
2023-03-06T08:19:12.415Z,21.78
2023-03-06T08:21:41.994Z,21.80
2023-03-06T08:24:09.729Z,21.81
2023-03-06T08:26:37.925Z,21.82
2023-03-06T08:29:06.099Z,21.83
2023-03-06T08:31:34.660Z,21.84
2023-03-06T08:34:02.913Z,21.85
2023-03-06T08:36:31.331Z,21.88
2023-03-06T08:39:00.494Z,21.90
2023-03-06T08:41:28.299Z,21.91
2023-03-06T08:43:56.093Z,21.93
2023-03-06T08:46:24.392Z,21.94
2023-03-06T08:48:52.383Z,21.94
2023-03-06T08:51:20.169Z,21.97
2023-03-06T08:53:48.230Z,22.00
2023-03-06T08:56:17.954Z,22.03
2023-03-06T08:58:45.727Z,22.03
2023-03-06T09:01:15.431Z,21.99
2023-03-06T09:03:43.136Z,22.01
2023-03-06T09:06:12.131Z,22.04
2023-03-06T09:08:43.017Z,22.04
2023-03-06T09:11:10.746Z,22.06
2023-03-06T09:13:39.889Z,22.08
2023-03-06T09:16:08.518Z,22.09
2023-03-06T09:18:36.359Z,22.10
2023-03-06T09:21:04.117Z,22.11
2023-03-06T09:23:32.270Z,22.11
2023-03-06T09:26:00.372Z,22.12
2023-03-06T09:28:28.144Z,22.11
2023-03-06T09:30:57.322Z,22.10
2023-03-06T09:33:25.245Z,22.10
2023-03-06T09:35:54.449Z,22.11
2023-03-06T09:38:22.335Z,22.10
2023-03-06T09:40:54.254Z,22.11
2023-03-06T09:43:22.666Z,22.14
2023-03-06T09:45:50.325Z,22.16
2023-03-06T09:48:19.781Z,22.19
2023-03-06T09:50:47.647Z,22.20
2023-03-06T09:53:19.728Z,22.21
2023-03-06T09:55:47.809Z,22.24
2023-03-06T09:58:17.223Z,22.25
2023-03-06T10:00:46.754Z,22.27
2023-03-06T10:03:17.045Z,22.29
2023-03-06T10:05:48.245Z,22.31
2023-03-06T10:08:19.345Z,22.33
2023-03-06T10:10:48.249Z,22.34
2023-03-06T10:13:17.553Z,22.37
2023-03-06T10:15:46.141Z,22.39
2023-03-06T10:18:13.877Z,22.41
2023-03-06T10:20:43.049Z,22.42
2023-03-06T10:23:26.486Z,22.44
2023-03-06T10:25:56.371Z,22.45
2023-03-06T10:28:25.616Z,22.46
2023-03-06T10:30:53.842Z,22.46
2023-03-06T10:33:28.469Z,22.49
2023-03-06T10:35:56.993Z,22.50
2023-03-06T10:38:26.584Z,22.51
2023-03-06T10:40:56.938Z,22.51
2023-03-06T10:43:25.029Z,22.53
2023-03-06T10:45:53.249Z,22.55
2023-03-06T10:48:21.881Z,22.57
2023-03-06T10:50:49.513Z,22.56
2023-03-06T10:53:22.717Z,22.59
2023-03-06T10:55:55.773Z,22.58
2023-03-06T10:58:24.369Z,22.60
2023-03-06T11:01:00.939Z,22.62
2023-03-06T11:03:28.887Z,22.64
2023-03-06T11:06:01.841Z,22.66
2023-03-06T11:08:30.253Z,22.68
2023-03-06T11:11:00.385Z,22.70
2023-03-06T11:13:28.505Z,22.71
2023-03-06T11:15:57.278Z,22.74
2023-03-06T11:18:27.891Z,22.75
2023-03-06T11:20:56.068Z,22.76
2023-03-06T11:23:25.798Z,22.76
2023-03-06T11:25:54.852Z,22.75
2023-03-06T11:28:25.113Z,22.76
2023-03-06T11:30:53.313Z,22.74
2023-03-06T11:33:21.482Z,22.74
2023-03-06T11:35:53.089Z,22.75
2023-03-06T11:38:21.956Z,22.76
2023-03-06T11:40:50.777Z,22.79
2023-03-06T11:43:19.076Z,22.80
2023-03-06T11:45:48.428Z,22.83
2023-03-06T11:48:20.552Z,22.86
2023-03-06T11:50:49.206Z,22.86
2023-03-06T11:53:17.333Z,22.87
2023-03-06T11:55:47.052Z,22.88
2023-03-06T11:58:21.813Z,22.89
2023-03-06T12:00:52.170Z,22.91
2023-03-06T12:03:25.349Z,22.92
2023-03-06T12:05:54.402Z,22.93
2023-03-06T12:08:26.096Z,22.94
2023-03-06T12:10:54.555Z,22.92
2023-03-06T12:13:28.455Z,22.93
2023-03-06T12:16:06.118Z,22.94
2023-03-06T12:18:38.299Z,22.94
2023-03-06T12:21:06.841Z,22.95
2023-03-06T12:23:39.157Z,22.94
2023-03-06T12:26:09.616Z,22.91
2023-03-06T12:28:40.985Z,22.90
2023-03-06T12:31:19.130Z,22.88
2023-03-06T12:33:49.176Z,22.88
2023-03-06T12:36:23.895Z,22.88
2023-03-06T12:38:58.035Z,22.90
2023-03-06T12:41:28.307Z,22.91
2023-03-06T12:43:59.292Z,22.92
2023-03-06T12:46:28.591Z,22.95
2023-03-06T12:48:59.237Z,22.98
2023-03-06T12:51:26.930Z,22.98
2023-03-06T12:53:54.937Z,22.98
2023-03-06T12:56:22.699Z,22.99
2023-03-06T12:58:51.674Z,23.01
2023-03-06T13:01:46.847Z,22.99
2023-03-06T13:04:21.359Z,23.01
2023-03-06T13:06:55.991Z,23.02
2023-03-06T13:09:24.845Z,23.00
2023-03-06T13:11:59.918Z,23.00
2023-03-06T13:14:28.782Z,22.98
2023-03-06T13:16:57.844Z,22.99
2023-03-06T13:19:26.296Z,23.00
2023-03-06T13:22:04.006Z,22.99
2023-03-06T13:24:32.457Z,22.99
2023-03-06T13:27:01.484Z,22.98
2023-03-06T13:29:51.666Z,23.00
2023-03-06T13:32:21.628Z,23.02
2023-03-06T13:34:51.782Z,23.07
2023-03-06T13:37:41.338Z,23.07
2023-03-06T13:40:15.573Z,23.04
2023-03-06T13:42:58.538Z,23.01
2023-03-06T13:45:27.001Z,23.00
2023-03-06T13:48:22.608Z,22.99
2023-03-06T13:50:44.702Z,22.99
2023-03-06T13:53:26.045Z,23.02
2023-03-06T13:55:57.400Z,23.03
2023-03-06T13:58:29.073Z,23.03
2023-03-06T14:01:08.908Z,23.02
2023-03-06T14:03:56.109Z,23.00
2023-03-06T14:06:48.659Z,22.98
2023-03-06T14:09:17.963Z,22.96
2023-03-06T14:11:47.331Z,22.94
2023-03-06T14:14:16.376Z,22.94
2023-03-06T14:16:50.332Z,22.93
2023-03-06T14:19:19.220Z,22.91
2023-03-06T14:21:48.955Z,22.91
2023-03-06T14:24:18.100Z,22.91
2023-03-06T14:26:46.149Z,22.90
2023-03-06T14:29:21.107Z,22.88
2023-03-06T14:31:49.734Z,22.90
2023-03-06T14:34:18.983Z,22.90
2023-03-06T14:36:49.609Z,22.89
2023-03-06T14:39:19.293Z,22.88
2023-03-06T14:41:46.942Z,22.87
2023-03-06T14:44:17.413Z,22.87
2023-03-06T14:46:45.164Z,22.86
2023-03-06T14:49:14.123Z,22.86
2023-03-06T14:51:42.581Z,22.85
2023-03-06T14:54:13.341Z,22.83
2023-03-06T14:56:41.300Z,22.83
2023-03-06T14:59:10.162Z,22.82
2023-03-06T15:01:38.194Z,22.83
2023-03-06T15:04:08.479Z,22.83
2023-03-06T15:06:37.847Z,22.82
2023-03-06T15:09:08.000Z,22.82
2023-03-06T15:11:50.763Z,22.82
2023-03-06T15:14:21.295Z,22.84
2023-03-06T15:16:48.970Z,22.82
2023-03-06T15:19:18.154Z,22.82
2023-03-06T15:21:50.266Z,22.81
2023-03-06T15:24:31.897Z,22.80
2023-03-06T15:27:01.288Z,22.79
2023-03-06T15:29:30.383Z,22.79
2023-03-06T15:32:13.597Z,22.79
2023-03-06T15:34:41.278Z,22.80
2023-03-06T15:37:21.131Z,22.81
2023-03-06T15:39:48.777Z,22.86
2023-03-06T15:42:18.914Z,22.87
2023-03-06T15:44:53.105Z,22.87
2023-03-06T15:47:21.606Z,22.85
2023-03-06T15:49:52.128Z,22.83
2023-03-06T15:52:21.354Z,22.80
2023-03-06T15:54:49.067Z,22.80
2023-03-06T15:57:19.281Z,22.78
2023-03-06T15:59:47.638Z,22.76
2023-03-06T16:02:17.463Z,22.75
2023-03-06T16:04:47.322Z,22.74
2023-03-06T16:07:15.885Z,22.72
2023-03-06T16:09:43.670Z,22.72
2023-03-06T16:12:14.347Z,22.71
2023-03-06T16:14:42.022Z,22.70
2023-03-06T16:17:10.229Z,22.68
2023-03-06T16:19:39.979Z,22.69
2023-03-06T16:22:07.649Z,22.67
2023-03-06T16:24:36.068Z,22.66
2023-03-06T16:27:04.790Z,22.66
2023-03-06T16:29:32.585Z,22.67
2023-03-06T16:32:02.705Z,22.66
2023-03-06T16:34:30.453Z,22.66
2023-03-06T16:37:00.469Z,22.66
2023-03-06T16:39:28.928Z,22.65
2023-03-06T16:41:56.561Z,22.65
2023-03-06T16:44:24.967Z,22.65
2023-03-06T16:46:52.658Z,22.65
2023-03-06T16:49:25.437Z,22.63
2023-03-06T16:51:53.336Z,22.63
2023-03-06T16:54:25.090Z,22.61
2023-03-06T16:56:52.841Z,22.60
2023-03-06T16:59:21.364Z,22.60
2023-03-06T17:01:49.030Z,22.59
2023-03-06T17:04:17.580Z,22.58
2023-03-06T17:06:46.045Z,22.58
2023-03-06T17:09:16.177Z,22.57
2023-03-06T17:11:46.932Z,22.55
2023-03-06T17:14:14.648Z,22.55
2023-03-06T17:16:43.409Z,22.55
2023-03-06T17:19:11.297Z,22.53
2023-03-06T17:21:40.029Z,22.54
2023-03-06T17:24:07.766Z,22.52
2023-03-06T17:26:37.352Z,22.52
2023-03-06T17:29:07.185Z,22.53
2023-03-06T17:31:35.763Z,22.51
2023-03-06T17:34:03.526Z,22.51
2023-03-06T17:36:32.008Z,22.51
2023-03-06T17:38:59.887Z,22.52
2023-03-06T17:41:28.415Z,22.52
2023-03-06T17:43:56.233Z,22.51
2023-03-06T17:46:25.429Z,22.52
2023-03-06T17:48:53.975Z,22.51
2023-03-06T17:51:21.689Z,22.51
2023-03-06T17:53:53.407Z,22.51
2023-03-06T17:56:21.134Z,22.50
2023-03-06T17:58:48.771Z,22.50
2023-03-06T18:01:17.774Z,22.50
2023-03-06T18:03:47.249Z,22.49
2023-03-06T18:06:18.121Z,22.49
2023-03-06T18:08:45.896Z,22.48
2023-03-06T18:11:13.543Z,22.47
2023-03-06T18:13:42.788Z,22.46
2023-03-06T18:16:11.040Z,22.45
2023-03-06T18:18:39.660Z,22.46
2023-03-06T18:21:09.325Z,22.44
2023-03-06T18:23:37.888Z,22.45
2023-03-06T18:26:10.452Z,22.45
2023-03-06T18:28:39.092Z,22.43
2023-03-06T18:31:08.849Z,22.43
2023-03-06T18:33:36.751Z,22.43
2023-03-06T18:36:05.858Z,22.42
2023-03-06T18:38:34.907Z,22.43
2023-03-06T18:41:03.518Z,22.42
2023-03-06T18:43:31.127Z,22.42
2023-03-06T18:46:01.174Z,22.41
2023-03-06T18:48:28.893Z,22.42
2023-03-06T18:50:58.650Z,22.43
2023-03-06T18:53:26.243Z,22.42
2023-03-06T18:55:56.401Z,22.41
2023-03-06T18:58:24.065Z,22.42
2023-03-06T19:00:52.614Z,22.43
2023-03-06T19:03:20.321Z,22.42
2023-03-06T19:05:50.005Z,22.42
2023-03-06T19:08:17.910Z,22.42
2023-03-06T19:10:49.621Z,22.42
2023-03-06T19:13:18.788Z,22.42
2023-03-06T19:15:46.746Z,22.42
2023-03-06T19:18:17.524Z,22.41
2023-03-06T19:20:45.390Z,22.42
2023-03-06T19:23:14.332Z,22.41
2023-03-06T19:25:42.060Z,22.40
2023-03-06T19:30:42.323Z,22.41
2023-03-06T19:33:10.092Z,22.39
2023-03-06T19:35:38.661Z,22.40
2023-03-06T19:38:06.413Z,22.39
2023-03-06T19:40:35.365Z,22.38
2023-03-06T19:43:03.125Z,22.37
2023-03-06T19:45:30.812Z,22.36
2023-03-06T19:48:03.709Z,22.37
2023-03-06T19:50:31.336Z,22.39
2023-03-06T19:53:01.039Z,22.40
2023-03-06T19:55:29.104Z,22.42
2023-03-06T19:57:56.699Z,22.43
2023-03-06T20:00:25.821Z,22.43
2023-03-06T20:02:53.479Z,22.43
2023-03-06T20:05:24.668Z,22.44
2023-03-06T20:07:54.812Z,22.44
2023-03-06T20:10:23.434Z,22.44
2023-03-06T20:12:51.186Z,22.45
2023-03-06T20:15:20.385Z,22.45
2023-03-06T20:17:49.063Z,22.46
2023-03-06T20:20:16.968Z,22.46
2023-03-06T20:22:47.610Z,22.42
2023-03-06T20:25:23.174Z,22.46
2023-03-06T20:27:52.605Z,22.47
2023-03-06T20:30:20.362Z,22.47
2023-03-06T20:32:49.547Z,22.47
2023-03-06T20:35:17.402Z,22.45
2023-03-06T20:37:47.427Z,22.46
2023-03-06T20:40:15.110Z,22.46
2023-03-06T20:42:43.770Z,22.45
2023-03-06T20:45:11.810Z,22.46
2023-03-06T20:47:40.466Z,22.44
2023-03-06T20:50:08.509Z,22.45
2023-03-06T20:52:37.817Z,22.44
2023-03-06T20:55:07.593Z,22.44
2023-03-06T20:57:36.749Z,22.45
2023-03-06T21:00:05.279Z,22.46
2023-03-06T21:02:32.961Z,22.45
2023-03-06T21:05:02.738Z,22.46
2023-03-06T21:07:31.938Z,22.46
2023-03-06T21:10:01.272Z,22.47
2023-03-06T21:12:30.357Z,22.47
2023-03-06T21:15:00.566Z,22.47
2023-03-06T21:17:30.226Z,22.48
2023-03-06T21:20:02.702Z,22.47
2023-03-06T21:22:30.573Z,22.47
2023-03-06T21:24:59.167Z,22.47
2023-03-06T21:27:26.891Z,22.47
2023-03-06T21:29:55.911Z,22.47
2023-03-06T21:32:24.738Z,22.47
2023-03-06T21:34:52.607Z,22.47
2023-03-06T21:37:21.652Z,22.47
2023-03-06T21:39:49.346Z,22.47
2023-03-06T21:42:17.922Z,22.48
2023-03-06T21:44:45.636Z,22.48
2023-03-06T21:47:16.231Z,22.49
2023-03-06T21:49:43.905Z,22.49
2023-03-06T21:52:12.680Z,22.49
2023-03-06T21:54:40.415Z,22.50
2023-03-06T21:57:08.893Z,22.51
2023-03-06T21:59:37.484Z,22.50
2023-03-06T22:02:05.261Z,22.49
2023-03-06T22:04:35.201Z,22.49
2023-03-06T22:07:03.642Z,22.48
2023-03-06T22:09:32.698Z,22.49
2023-03-06T22:12:00.568Z,22.49
2023-03-06T22:14:33.674Z,22.48
2023-03-06T22:17:08.077Z,22.48
2023-03-06T22:19:37.949Z,22.47
2023-03-06T22:22:05.823Z,22.46
2023-03-06T22:24:33.481Z,22.45
2023-03-06T22:27:01.843Z,22.45
2023-03-06T22:29:29.485Z,22.44
2023-03-06T22:31:57.922Z,22.43
2023-03-06T22:34:26.644Z,22.44
2023-03-06T22:36:55.794Z,22.43
2023-03-06T22:39:24.209Z,22.43
2023-03-06T22:41:52.366Z,22.43
2023-03-06T22:44:21.593Z,22.42
2023-03-06T22:46:49.217Z,22.43
2023-03-06T22:49:17.052Z,22.42
2023-03-06T22:51:46.092Z,22.41
2023-03-06T22:54:15.061Z,22.41
2023-03-06T22:56:43.678Z,22.41
2023-03-06T22:59:11.422Z,22.41
2023-03-06T23:01:39.254Z,22.38
2023-03-06T23:04:11.968Z,22.38
2023-03-06T23:06:41.946Z,22.38
2023-03-06T23:09:10.786Z,22.37
2023-03-06T23:11:39.753Z,22.35
2023-03-06T23:14:07.414Z,22.35
2023-03-06T23:16:35.376Z,22.35
2023-03-06T23:19:03.057Z,22.35
2023-03-06T23:21:31.316Z,22.36
2023-03-06T23:23:59.003Z,22.36
2023-03-06T23:26:27.033Z,22.35
2023-03-06T23:28:56.281Z,22.35
2023-03-06T23:31:24.394Z,22.36
2023-03-06T23:33:52.102Z,22.36
2023-03-06T23:36:19.801Z,22.36
2023-03-06T23:38:47.618Z,22.36
2023-03-06T23:41:16.267Z,22.37
2023-03-06T23:43:43.952Z,22.36
2023-03-06T23:46:13.145Z,22.35
2023-03-06T23:48:41.612Z,22.34
2023-03-06T23:51:09.400Z,22.33
2023-03-06T23:53:37.084Z,22.34
2023-03-06T23:56:05.532Z,22.34
2023-03-06T23:58:33.236Z,22.33
